Time;durP1;ratioP1;P1;durP2;ratioP2;P2;SDS_P1;SDS_P2;PMS_P1;PMS_P2;Temp;Humidity;BMP_temperature;BMP_pressure;BME280_temperature;BME280_humidity;BME280_pressure;Samples;Min_cycle;Max_cycle;Signal;HPM_P1;HPM_P2
2022/11/15 00:00:57;;;;;;;1.20;1.00;;;6.00;99.90;;;;;;5052114;28;20545;-45
2022/11/15 00:03:25;;;;;;;1.37;1.20;;;6.00;99.90;;;;;;5052057;28;20528;-44
2022/11/15 00:05:52;;;;;;;1.67;0.80;;;6.10;99.90;;;;;;5052036;28;20924;-45
2022/11/15 00:08:20;;;;;;;1.20;1.00;;;6.10;99.90;;;;;;5052012;28;20448;-45
2022/11/15 00:10:55;;;;;;;1.30;1.10;;;6.00;99.90;;;;;;5051938;28;20465;-45
2022/11/15 00:13:22;;;;;;;1.10;0.80;;;5.90;99.90;;;;;;5051969;28;20886;-45
2022/11/15 00:15:49;;;;;;;2.00;0.93;;;6.10;99.90;;;;;;5052039;28;20533;-45
2022/11/15 00:18:16;;;;;;;1.23;0.80;;;6.30;99.90;;;;;;5051476;28;21013;-45
2022/11/15 00:20:44;;;;;;;1.40;1.00;;;6.40;99.90;;;;;;5051707;28;20474;-44
2022/11/15 00:23:11;;;;;;;1.87;1.10;;;6.20;99.90;;;;;;5051730;28;20477;-45
2022/11/15 00:25:39;;;;;;;2.23;1.20;;;6.20;99.90;;;;;;5051695;28;20913;-46
2022/11/15 00:28:06;;;;;;;3.20;2.00;;;6.10;99.90;;;;;;5052016;28;20533;-44
2022/11/15 00:30:34;;;;;;;2.30;1.20;;;6.10;99.90;;;;;;5051875;28;20540;-47
2022/11/15 00:33:03;;;;;;;1.50;1.00;;;6.10;99.90;;;;;;5051544;28;20446;-47
2022/11/15 00:35:33;;;;;;;1.37;0.87;;;5.80;99.90;;;;;;5051637;28;20437;-44
2022/11/15 00:38:00;;;;;;;1.40;0.93;;;5.70;99.90;;;;;;5051841;28;20444;-45
2022/11/15 00:40:27;;;;;;;1.27;1.00;;;5.70;99.90;;;;;;5051313;28;20444;-45
2022/11/15 00:42:55;;;;;;;1.07;0.80;;;5.80;99.90;;;;;;5051368;28;20533;-46
2022/11/15 00:45:22;;;;;;;1.30;1.00;;;5.80;99.90;;;;;;5051209;28;20470;-47
2022/11/15 00:47:49;;;;;;;1.60;1.10;;;6.00;99.90;;;;;;5051817;28;20528;-45
2022/11/15 00:50:16;;;;;;;1.70;1.20;;;5.60;99.90;;;;;;5051518;28;20530;-45
2022/11/15 00:52:43;;;;;;;1.23;0.83;;;5.60;99.90;;;;;;5051310;28;21043;-45
2022/11/15 00:55:14;;;;;;;2.03;0.90;;;5.70;99.90;;;;;;5050892;28;20531;-45
2022/11/15 00:57:40;;;;;;;1.60;1.20;;;5.90;99.90;;;;;;5047531;28;21135;-46
2022/11/15 01:00:10;;;;;;;2.13;1.03;;;5.80;99.90;;;;;;5051032;28;20532;-44
2022/11/15 01:02:37;;;;;;;1.40;0.90;;;6.00;99.90;;;;;;5051482;28;20448;-47
2022/11/15 01:05:04;;;;;;;2.07;0.97;;;5.90;99.90;;;;;;5051233;28;20528;-45
2022/11/15 01:07:31;;;;;;;1.20;0.93;;;5.90;99.90;;;;;;5051344;28;20442;-47
2022/11/15 01:09:58;;;;;;;2.03;1.23;;;6.00;99.90;;;;;;5051290;28;20477;-45
2022/11/15 01:12:25;;;;;;;1.50;1.23;;;5.90;99.90;;;;;;5050844;28;20468;-45
2022/11/15 01:14:52;;;;;;;1.10;0.97;;;5.70;99.90;;;;;;5050659;28;20477;-45
2022/11/15 01:17:20;;;;;;;1.37;0.90;;;5.60;99.90;;;;;;5051204;28;21011;-45
2022/11/15 01:19:47;;;;;;;1.63;1.10;;;5.40;99.90;;;;;;5050913;28;20450;-45
2022/11/15 01:22:14;;;;;;;2.10;1.00;;;5.20;99.90;;;;;;5050986;28;20987;-44
2022/11/15 01:24:40;;;;;;;1.40;1.03;;;5.30;99.90;;;;;;5050991;28;20872;-46
2022/11/15 01:27:07;;;;;;;2.13;1.23;;;5.40;99.90;;;;;;5050606;28;20924;-44
2022/11/15 01:29:34;;;;;;;1.70;1.60;;;5.50;99.90;;;;;;5052214;28;20451;-44
2022/11/15 01:32:01;;;;;;;1.67;1.10;;;5.50;99.90;;;;;;5054690;28;20465;-45
2022/11/15 01:34:29;;;;;;;1.30;1.00;;;5.60;99.90;;;;;;5054954;28;20446;-45
2022/11/15 01:36:56;;;;;;;1.73;1.33;;;5.50;99.90;;;;;;5055184;28;20433;-46
2022/11/15 01:39:23;;;;;;;1.50;0.83;;;5.60;99.90;;;;;;5054791;28;20481;-46
2022/11/15 01:41:50;;;;;;;1.20;0.87;;;5.70;99.90;;;;;;5054519;28;20469;-47
2022/11/15 01:44:39;;;;;;;2.37;1.00;;;5.20;99.90;;;;;;5054995;28;20452;-44
2022/11/15 01:47:11;;;;;;;2.50;1.30;;;5.20;99.90;;;;;;5054748;28;20476;-44
2022/11/15 01:49:42;;;;;;;1.90;1.63;;;5.10;99.90;;;;;;5054851;28;20536;-47
2022/11/15 01:52:14;;;;;;;2.40;1.73;;;5.20;99.90;;;;;;5054801;28;20550;-45
2022/11/15 01:54:41;;;;;;;1.50;1.27;;;5.20;99.90;;;;;;5054424;28;20483;-44
2022/11/15 01:57:10;;;;;;;1.53;1.27;;;5.30;99.90;;;;;;5054570;28;20476;-45
2022/11/15 01:59:39;;;;;;;1.53;0.90;;;5.10;99.90;;;;;;5054487;28;20854;-44
2022/11/15 02:02:06;;;;;;;1.10;0.80;;;5.00;99.90;;;;;;5054388;28;20548;-44
2022/11/15 02:04:36;;;;;;;1.47;1.13;;;5.10;99.90;;;;;;5054733;28;20487;-48
2022/11/15 02:07:06;;;;;;;2.40;0.80;;;5.30;99.90;;;;;;5054190;28;20596;-47
2022/11/15 02:09:33;;;;;;;1.50;1.23;;;5.50;99.90;;;;;;5054730;28;20451;-45
2022/11/15 02:12:00;;;;;;;1.43;1.00;;;5.30;99.90;;;;;;5054367;28;20557;-47
2022/11/15 02:14:29;;;;;;;1.37;1.07;;;5.20;99.90;;;;;;5053964;28;20949;-46
2022/11/15 02:17:02;;;;;;;1.60;1.03;;;5.30;99.90;;;;;;5054211;28;20566;-46
2022/11/15 02:20:01;;;;;;;1.20;1.00;;;5.40;99.90;;;;;;5054344;28;20453;-47
2022/11/15 02:22:43;;;;;;;1.40;1.10;;;5.30;99.90;;;;;;5055357;28;20504;-46
2022/11/15 02:25:32;;;;;;;2.00;0.90;;;5.30;99.90;;;;;;5053567;28;20442;-47
2022/11/15 02:28:39;;;;;;;1.17;0.80;;;5.50;99.90;;;;;;5054269;28;20436;-46
2022/11/15 02:31:14;;;;;;;1.67;1.00;;;5.70;99.90;;;;;;5031249;28;20554;-47
2022/11/15 02:33:51;;;;;;;1.30;1.00;;;5.50;99.90;;;;;;5053548;28;20532;-47
2022/11/15 02:36:30;;;;;;;1.33;0.87;;;5.30;99.90;;;;;;5053702;28;20979;-47
2022/11/15 02:39:04;;;;;;;1.13;1.00;;;5.50;99.90;;;;;;5053416;28;20886;-47
2022/11/15 02:41:36;;;;;;;1.30;1.10;;;5.40;99.90;;;;;;5053168;28;20465;-46
2022/11/15 02:44:09;;;;;;;1.67;1.20;;;5.30;99.90;;;;;;5053735;28;20453;-48
2022/11/15 02:49:30;;;;;;;1.33;0.93;;;5.20;99.90;;;;;;5053813;28;20433;-46
2022/11/15 02:51:57;;;;;;;2.10;1.03;;;5.10;99.90;;;;;;5053468;28;20508;-47
2022/11/15 02:54:25;;;;;;;1.30;0.90;;;5.40;99.90;;;;;;5052945;28;20452;-49
2022/11/15 02:56:55;;;;;;;1.50;1.00;;;5.30;99.90;;;;;;5053476;28;20476;-47
2022/11/15 02:59:49;;;;;;;2.47;1.20;;;5.30;99.90;;;;;;5053552;28;20492;-49
2022/11/15 03:02:37;;;;;;;1.40;1.30;;;5.30;99.90;;;;;;5053274;28;21036;-47
2022/11/15 03:05:15;;;;;;;2.80;1.70;;;5.40;99.90;;;;;;5053267;28;20449;-46
2022/11/15 03:07:48;;;;;;;2.80;2.13;;;5.40;99.90;;;;;;5052789;28;20487;-46
2022/11/15 03:10:22;;;;;;;1.53;1.30;;;5.20;99.90;;;;;;5053132;28;20528;-46
2022/11/15 03:12:55;;;;;;;2.40;1.47;;;5.10;99.90;;;;;;5053381;28;20524;-47
2022/11/15 03:15:28;;;;;;;2.40;1.00;;;5.20;99.90;;;;;;5053223;28;20443;-46
2022/11/15 03:18:01;;;;;;;1.60;1.30;;;5.20;99.90;;;;;;5053240;28;20942;-47
2022/11/15 03:20:29;;;;;;;3.30;1.30;;;5.00;99.90;;;;;;5052664;28;20444;-47
2022/11/15 03:23:01;;;;;;;1.97;0.97;;;5.10;99.90;;;;;;5052650;28;20528;-45
2022/11/15 03:25:30;;;;;;;1.47;1.10;;;5.10;99.90;;;;;;5052760;28;20536;-45
2022/11/15 03:28:01;;;;;;;1.30;1.00;;;4.90;99.90;;;;;;5053157;28;20566;-46
2022/11/15 03:30:29;;;;;;;1.93;1.13;;;4.60;99.90;;;;;;5052997;28;20449;-48
2022/11/15 03:32:59;;;;;;;1.87;1.00;;;4.80;99.90;;;;;;5052608;28;20534;-49
2022/11/15 03:35:29;;;;;;;1.40;1.30;;;4.90;99.90;;;;;;5052627;28;20891;-47
2022/11/15 03:38:05;;;;;;;1.07;0.80;;;4.90;99.90;;;;;;5053004;28;20467;-47
2022/11/15 03:40:38;;;;;;;1.70;0.93;;;5.00;99.90;;;;;;5052527;28;20488;-46
2022/11/15 03:43:11;;;;;;;1.10;0.70;;;4.90;99.90;;;;;;5052325;28;20477;-49
2022/11/15 03:45:44;;;;;;;2.07;1.40;;;5.00;99.90;;;;;;5052428;28;20892;-47
2022/11/15 03:48:15;;;;;;;1.33;1.23;;;4.80;99.90;;;;;;5052802;28;20488;-47
2022/11/15 03:50:43;;;;;;;1.63;1.10;;;4.90;99.90;;;;;;5052618;28;20495;-46
2022/11/15 03:53:10;;;;;;;4.00;1.10;;;4.80;99.90;;;;;;5051346;28;20529;-46
2022/11/15 03:55:37;;;;;;;1.60;1.20;;;4.80;99.90;;;;;;5052084;28;20530;-47
2022/11/15 03:58:04;;;;;;;4.97;2.80;;;4.70;99.90;;;;;;5052297;28;20885;-46
2022/11/15 04:00:31;;;;;;;9.23;6.20;;;4.60;99.90;;;;;;5052293;28;20540;-47
2022/11/15 04:02:58;;;;;;;9.03;6.07;;;4.70;99.90;;;;;;5052178;28;20885;-47
2022/11/15 04:05:27;;;;;;;6.00;3.93;;;4.70;99.90;;;;;;5052298;28;20467;-47
2022/11/15 04:07:53;;;;;;;5.17;3.10;;;4.90;99.90;;;;;;5052094;28;21080;-46
2022/11/15 04:10:20;;;;;;;4.40;3.63;;;4.90;99.90;;;;;;5051854;28;20449;-50
2022/11/15 04:12:48;;;;;;;2.20;1.67;;;4.90;99.90;;;;;;5052473;28;20532;-47
2022/11/15 04:15:16;;;;;;;2.10;1.70;;;4.90;99.90;;;;;;5051589;28;20756;-46
2022/11/15 04:17:45;;;;;;;1.77;1.30;;;4.50;99.90;;;;;;5051463;28;20455;-48
2022/11/15 04:25:46;;;;;;;1.30;1.00;;;4.90;99.90;;;;;;5051788;28;20940;-47
2022/11/15 04:28:13;;;;;;;1.90;1.20;;;5.10;99.90;;;;;;5051981;28;20618;-45
2022/11/15 04:30:40;;;;;;;1.90;1.30;;;5.20;99.90;;;;;;5051251;28;20903;-46
2022/11/15 04:33:07;;;;;;;2.00;1.33;;;4.90;99.90;;;;;;5051752;28;20529;-46
2022/11/15 04:35:34;;;;;;;2.07;1.70;;;4.80;99.90;;;;;;5051533;28;20687;-47
2022/11/15 04:38:04;;;;;;;2.27;1.90;;;4.80;99.90;;;;;;5051619;28;20472;-46
2022/11/15 04:40:31;;;;;;;1.93;1.50;;;4.70;99.90;;;;;;5051625;28;20551;-47
2022/11/15 04:42:57;;;;;;;1.27;1.00;;;4.60;99.90;;;;;;5050667;28;20865;-46
2022/11/15 04:45:24;;;;;;;1.23;0.80;;;4.50;99.90;;;;;;5051223;28;20494;-47
2022/11/15 04:47:51;;;;;;;2.00;1.03;;;4.30;99.90;;;;;;5051358;28;20559;-47
2022/11/15 04:50:18;;;;;;;2.10;1.33;;;4.30;99.90;;;;;;5051133;28;20532;-46
2022/11/15 04:52:51;;;;;;;2.83;1.70;;;4.40;99.90;;;;;;5051350;28;20441;-48
2022/11/15 04:55:20;;;;;;;2.87;1.70;;;4.60;99.90;;;;;;5051211;28;20539;-46
2022/11/15 04:57:47;;;;;;;4.90;3.43;;;4.60;99.90;;;;;;5051120;28;20538;-47
2022/11/15 05:00:17;;;;;;;3.10;1.77;;;4.60;99.90;;;;;;5050820;28;20541;-47
2022/11/15 05:05:28;;;;;;;4.57;2.57;;;4.60;99.90;;;;;;5051173;28;20499;-46
2022/11/15 05:07:55;;;;;;;6.47;3.10;;;4.50;99.90;;;;;;5051122;28;20563;-47
2022/11/15 05:10:23;;;;;;;2.70;2.27;;;4.40;99.90;;;;;;5051243;28;20534;-46
2022/11/15 05:12:50;;;;;;;4.10;2.63;;;4.30;99.90;;;;;;5051070;28;20439;-46
2022/11/15 05:15:17;;;;;;;2.30;2.00;;;4.50;99.90;;;;;;5051224;28;20440;-47
2022/11/15 05:17:44;;;;;;;4.50;2.30;;;4.40;99.90;;;;;;5051181;28;20441;-46
2022/11/15 05:20:12;;;;;;;1.93;1.83;;;4.40;99.90;;;;;;5051015;28;20526;-48
2022/11/15 05:22:39;;;;;;;1.90;1.70;;;4.50;99.90;;;;;;5051046;28;20479;-46
2022/11/15 05:25:07;;;;;;;2.23;1.60;;;4.50;99.90;;;;;;5050690;28;21015;-47
2022/11/15 05:27:36;;;;;;;2.27;2.07;;;4.50;99.90;;;;;;5050952;28;20579;-46
2022/11/15 05:30:03;;;;;;;2.10;1.90;;;4.60;99.90;;;;;;5050772;28;20484;-46
2022/11/15 05:32:30;;;;;;;2.10;1.27;;;4.30;99.90;;;;;;5050648;28;20594;-48
2022/11/15 05:34:57;;;;;;;2.20;1.60;;;4.40;99.90;;;;;;5050562;28;20481;-47
2022/11/15 05:37:24;;;;;;;2.10;1.60;;;4.50;99.90;;;;;;5051039;28;20433;-46
2022/11/15 05:39:50;;;;;;;1.97;1.70;;;4.50;99.90;;;;;;5050600;28;20450;-47
2022/11/15 05:42:18;;;;;;;2.50;1.20;;;4.40;99.90;;;;;;5051171;28;20486;-46
2022/11/15 05:44:49;;;;;;;2.50;1.43;;;4.40;99.90;;;;;;5050522;28;20500;-46
2022/11/15 05:47:20;;;;;;;1.43;1.23;;;4.40;99.90;;;;;;5050765;28;21081;-47
2022/11/15 05:49:50;;;;;;;2.53;1.70;;;4.20;99.90;;;;;;5050836;28;20522;-46
2022/11/15 05:52:20;;;;;;;1.53;1.37;;;4.20;99.90;;;;;;5050670;28;20459;-47
2022/11/15 05:54:47;;;;;;;2.03;1.77;;;4.40;99.90;;;;;;5049280;28;20536;-48
2022/11/15 05:57:14;;;;;;;1.83;1.30;;;4.40;99.90;;;;;;5050567;28;20535;-46
2022/11/15 05:59:43;;;;;;;2.60;2.17;;;4.50;99.90;;;;;;5050597;28;20532;-47
2022/11/15 06:02:11;;;;;;;5.27;3.97;;;4.50;99.90;;;;;;5050523;28;20464;-47
2022/11/15 06:04:38;;;;;;;5.60;2.80;;;4.60;99.90;;;;;;5050343;28;20536;-46
2022/11/15 06:07:05;;;;;;;3.20;2.57;;;4.60;99.90;;;;;;5050563;28;20563;-46
2022/11/15 06:09:32;;;;;;;3.87;3.00;;;4.40;99.90;;;;;;5050721;28;20477;-47
2022/11/15 06:11:59;;;;;;;3.70;2.60;;;4.10;99.90;;;;;;5050789;28;20472;-47
2022/11/15 06:14:26;;;;;;;2.80;2.50;;;4.20;99.90;;;;;;5050353;28;20534;-46
2022/11/15 06:16:52;;;;;;;3.03;2.47;;;4.20;99.90;;;;;;5053266;28;20885;-47
2022/11/15 06:19:21;;;;;;;4.27;2.57;;;3.90;99.90;;;;;;5054341;28;20448;-47
2022/11/15 06:21:48;;;;;;;2.53;2.20;;;3.60;99.90;;;;;;5053917;28;20483;-46
2022/11/15 06:24:14;;;;;;;4.90;2.83;;;3.70;99.90;;;;;;5053680;28;20482;-46
2022/11/15 06:26:41;;;;;;;2.97;2.60;;;3.70;99.90;;;;;;5053222;28;20531;-47
2022/11/15 06:29:08;;;;;;;2.20;2.00;;;3.80;99.90;;;;;;5053942;28;20530;-47
2022/11/15 06:31:35;;;;;;;2.80;2.10;;;4.10;99.90;;;;;;5053742;28;20471;-46
2022/11/15 06:34:02;;;;;;;4.27;2.60;;;4.30;99.90;;;;;;5053861;28;20533;-47
2022/11/15 06:36:30;;;;;;;3.03;2.20;;;4.40;99.90;;;;;;5053501;28;20476;-46
2022/11/15 06:38:58;;;;;;;1.80;1.50;;;4.40;99.90;;;;;;5052534;28;20449;-46
2022/11/15 06:41:25;;;;;;;2.50;2.20;;;4.40;99.90;;;;;;5053180;28;20550;-46
2022/11/15 06:43:51;;;;;;;3.23;2.80;;;4.40;99.90;;;;;;5053105;28;20538;-47
2022/11/15 06:46:18;;;;;;;4.50;4.10;;;4.50;99.90;;;;;;5053646;28;20502;-49
2022/11/15 06:48:45;;;;;;;4.63;3.10;;;4.50;99.90;;;;;;5053597;28;20486;-46
2022/11/15 06:51:12;;;;;;;4.53;3.77;;;4.40;99.90;;;;;;5053706;28;20549;-46
2022/11/15 06:53:40;;;;;;;8.23;4.20;;;4.40;99.90;;;;;;5052821;28;20513;-45
2022/11/15 06:56:08;;;;;;;4.23;3.40;;;3.90;99.90;;;;;;5053511;28;20539;-47
2022/11/15 06:58:36;;;;;;;4.07;3.50;;;3.80;99.90;;;;;;5053572;28;20857;-49
2022/11/15 07:01:05;;;;;;;4.00;2.93;;;3.90;99.90;;;;;;5053458;28;20547;-46
2022/11/15 07:03:32;;;;;;;3.87;3.50;;;4.20;99.90;;;;;;5052595;28;20532;-46
2022/11/15 07:05:59;;;;;;;2.20;2.00;;;4.30;99.90;;;;;;5053404;28;20532;-46
2022/11/15 07:08:29;;;;;;;6.23;2.30;;;4.00;99.90;;;;;;5053760;28;20572;-46
2022/11/15 07:10:59;;;;;;;2.07;1.77;;;4.00;99.90;;;;;;5053464;28;20458;-47
2022/11/15 07:13:26;;;;;;;5.00;2.20;;;3.90;99.90;;;;;;5053065;28;20806;-46
2022/11/15 07:15:53;;;;;;;2.93;2.27;;;4.10;99.90;;;;;;5053141;28;20540;-45
2022/11/15 07:18:20;;;;;;;3.13;1.90;;;4.10;99.90;;;;;;5053056;28;20522;-48
2022/11/15 07:20:47;;;;;;;1.90;1.57;;;4.10;99.90;;;;;;5053567;28;20567;-46
2022/11/15 07:23:14;;;;;;;5.00;3.13;;;4.10;99.90;;;;;;5052841;28;20551;-46
2022/11/15 07:25:41;;;;;;;5.77;4.07;;;4.00;99.90;;;;;;5053227;28;20529;-46
2022/11/15 07:28:09;;;;;;;2.33;1.80;;;3.80;99.90;;;;;;5052633;28;20560;-46
2022/11/15 07:30:36;;;;;;;2.93;2.60;;;3.90;99.90;;;;;;5053025;28;20529;-46
2022/11/15 07:33:03;;;;;;;4.87;2.87;;;4.00;99.90;;;;;;5051830;28;20521;-46
2022/11/15 07:35:30;;;;;;;6.80;4.80;;;4.10;99.90;;;;;;5052364;28;20452;-47
2022/11/15 07:37:58;;;;;;;14.57;11.23;;;4.20;99.90;;;;;;5052984;28;20524;-46
2022/11/15 07:40:26;;;;;;;17.43;9.20;;;4.10;99.90;;;;;;5052405;28;20542;-47
2022/11/15 07:42:56;;;;;;;11.53;7.70;;;3.90;99.90;;;;;;5052586;28;20478;-43
2022/11/15 07:45:26;;;;;;;3.40;2.70;;;4.00;99.90;;;;;;5052988;28;20466;-46
2022/11/15 07:47:53;;;;;;;5.53;4.07;;;3.70;99.90;;;;;;5052836;28;20482;-47
2022/11/15 07:50:20;;;;;;;4.27;3.87;;;4.00;99.90;;;;;;5052525;28;20444;-49
2022/11/15 07:52:47;;;;;;;19.50;11.30;;;4.10;99.90;;;;;;5052328;28;20538;-46
2022/11/15 07:55:14;;;;;;;44.60;14.90;;;4.30;99.90;;;;;;5051928;28;21043;-45
2022/11/15 07:57:41;;;;;;;101.13;20.97;;;4.40;99.90;;;;;;5052469;28;20461;-46
2022/11/15 08:00:09;;;;;;;11.30;9.00;;;4.50;99.90;;;;;;5052348;28;21008;-46
2022/11/15 08:02:38;;;;;;;10.60;9.50;;;4.50;99.90;;;;;;5052208;28;20527;-47
2022/11/15 08:05:05;;;;;;;11.37;9.87;;;4.30;99.90;;;;;;5052223;28;20472;-46
2022/11/15 08:07:32;;;;;;;6.23;5.10;;;4.20;99.90;;;;;;5052309;28;20508;-46
2022/11/15 08:10:00;;;;;;;4.53;3.97;;;3.90;99.90;;;;;;5052085;28;20889;-46
2022/11/15 08:12:28;;;;;;;4.53;2.70;;;4.00;99.90;;;;;;5051880;28;20717;-47
2022/11/15 08:14:55;;;;;;;4.10;2.70;;;4.10;99.90;;;;;;5051879;28;20835;-47
2022/11/15 08:17:22;;;;;;;6.63;2.90;;;4.00;99.90;;;;;;5051840;28;20440;-47
2022/11/15 08:19:51;;;;;;;5.50;2.90;;;4.10;99.90;;;;;;5051835;28;20529;-47
2022/11/15 08:22:17;;;;;;;4.63;3.83;;;4.20;99.90;;;;;;5053107;28;20514;-47
2022/11/15 08:24:46;;;;;;;24.17;9.60;;;4.30;99.90;;;;;;5051682;28;20452;-46
2022/11/15 08:27:15;;;;;;;3.60;3.30;;;4.20;99.90;;;;;;5051662;28;20526;-48
2022/11/15 08:29:43;;;;;;;3.63;3.20;;;4.10;99.90;;;;;;5051965;28;20471;-46
2022/11/15 08:32:10;;;;;;;4.03;2.70;;;3.90;99.90;;;;;;5051767;28;20550;-46
2022/11/15 08:34:38;;;;;;;3.67;2.57;;;3.80;99.90;;;;;;5051227;28;20529;-48
2022/11/15 08:37:06;;;;;;;3.00;2.37;;;4.00;99.90;;;;;;5051433;28;20899;-46
2022/11/15 08:39:33;;;;;;;250.83;41.73;;;4.30;99.90;;;;;;5050774;28;20622;-46
2022/11/15 08:42:00;;;;;;;21.07;12.57;;;4.40;99.90;;;;;;5051471;28;20563;-46
2022/11/15 08:44:27;;;;;;;12.00;10.90;;;4.00;99.90;;;;;;5051829;28;20529;-47
2022/11/15 08:46:54;;;;;;;11.90;9.73;;;3.60;99.90;;;;;;5051237;28;20724;-49
2022/11/15 08:49:20;;;;;;;12.47;8.93;;;3.30;99.90;;;;;;5050587;28;20479;-47
2022/11/15 08:51:47;;;;;;;7.60;4.97;;;3.60;99.90;;;;;;5051201;28;21040;-48
2022/11/15 08:54:15;;;;;;;3.67;3.30;;;3.90;99.90;;;;;;5051084;28;20454;-49
2022/11/15 08:56:42;;;;;;;4.17;2.60;;;4.10;99.90;;;;;;5051225;28;20890;-48
2022/11/15 08:59:09;;;;;;;3.40;2.60;;;4.40;99.90;;;;;;5051180;28;20914;-46
2022/11/15 09:01:36;;;;;;;2.40;2.20;;;4.60;99.90;;;;;;5051127;28;20524;-46
2022/11/15 09:04:04;;;;;;;4.23;2.33;;;4.80;99.90;;;;;;5051099;28;21029;-46
2022/11/15 09:06:31;;;;;;;2.30;2.10;;;4.80;99.90;;;;;;5051214;28;20955;-47
2022/11/15 09:08:58;;;;;;;4.20;2.77;;;4.70;99.90;;;;;;5051175;28;20606;-46
2022/11/15 09:11:26;;;;;;;2.77;2.57;;;4.70;99.90;;;;;;5051072;28;20941;-48
2022/11/15 09:13:53;;;;;;;3.53;2.70;;;4.50;99.90;;;;;;5050943;28;20933;-46
2022/11/15 09:16:20;;;;;;;8.30;5.50;;;4.50;99.90;;;;;;5050985;28;20444;-46
2022/11/15 09:18:48;;;;;;;5.90;4.80;;;4.60;99.90;;;;;;5050871;28;20530;-47
2022/11/15 09:21:15;;;;;;;6.53;4.03;;;4.60;99.90;;;;;;5051191;28;20475;-46
2022/11/15 09:23:41;;;;;;;6.20;4.43;;;4.60;99.90;;;;;;5050687;28;20892;-47
2022/11/15 09:26:08;;;;;;;5.50;4.87;;;4.60;99.90;;;;;;5051097;28;20519;-47
2022/11/15 09:28:37;;;;;;;6.23;4.33;;;4.20;99.90;;;;;;5050581;28;20490;-47
2022/11/15 09:31:06;;;;;;;19.00;8.87;;;4.00;99.90;;;;;;5050297;28;20472;-47
2022/11/15 09:33:33;;;;;;;17.60;8.83;;;4.00;99.90;;;;;;5050452;28;20924;-47
2022/11/15 09:36:04;;;;;;;15.50;7.47;;;4.10;99.90;;;;;;5050812;28;20519;-46
2022/11/15 09:38:32;;;;;;;3.50;2.90;;;4.40;99.90;;;;;;5050876;28;20524;-47
2022/11/15 09:41:24;;;;;;;7.33;2.77;;;4.50;99.90;;;;;;5050794;28;20886;-46
2022/11/15 09:44:06;;;;;;;2.37;1.83;;;4.90;99.90;;;;;;5030812;28;20901;-47
2022/11/15 09:46:43;;;;;;;12.53;5.53;;;5.20;99.90;;;;;;5031101;28;20564;-47
2022/11/15 09:49:14;;;;;;;5.60;3.53;;;5.40;99.90;;;;;;5031070;28;20475;-47
2022/11/15 09:51:47;;;;;;;3.30;1.67;;;5.60;99.90;;;;;;5033743;28;20556;-47
2022/11/15 09:54:25;;;;;;;2.40;2.20;;;5.70;99.90;;;;;;5044952;28;20571;-46
2022/11/15 09:56:53;;;;;;;2.00;1.77;;;5.80;99.90;;;;;;5054409;28;20535;-47
2022/11/15 09:59:42;;;;;;;1.67;1.00;;;6.00;99.90;;;;;;5054473;28;20559;-48
2022/11/15 10:02:24;;;;;;;5.03;1.50;;;6.10;99.90;;;;;;5054547;28;20556;-46
2022/11/15 10:04:54;;;;;;;3.70;1.60;;;6.20;99.90;;;;;;5054199;28;20532;-47
2022/11/15 10:07:26;;;;;;;4.23;1.50;;;6.40;99.90;;;;;;5054326;28;20541;-46
2022/11/15 10:09:58;;;;;;;6.53;2.47;;;6.60;99.90;;;;;;5054366;28;20916;-47
2022/11/15 10:12:26;;;;;;;10.40;3.03;;;6.70;99.90;;;;;;5054681;28;20548;-46
2022/11/15 10:15:06;;;;;;;2.70;1.93;;;6.70;99.90;;;;;;5054119;28;20527;-47
2022/11/15 10:18:09;;;;;;;2.03;1.70;;;6.80;99.90;;;;;;5054239;28;20536;-47
2022/11/15 10:20:52;;;;;;;42.23;9.70;;;6.90;99.90;;;;;;5047511;28;20568;-47
2022/11/15 10:23:22;;;;;;;27.47;5.77;;;7.10;99.90;;;;;;5054410;28;20472;-46
2022/11/15 10:25:53;;;;;;;6.07;2.70;;;7.10;99.90;;;;;;5054180;28;20438;-45
2022/11/15 10:28:25;;;;;;;6.80;4.00;;;7.30;99.90;;;;;;5053422;28;20559;-45
2022/11/15 10:30:55;;;;;;;7.40;3.43;;;7.30;99.90;;;;;;5053298;28;20548;-44
2022/11/15 10:33:28;;;;;;;9.40;2.80;;;7.50;99.90;;;;;;5054011;28;20852;-46
2022/11/15 10:36:18;;;;;;;2.57;2.37;;;7.50;99.90;;;;;;5053740;28;20939;-45
2022/11/15 10:38:54;;;;;;;2.70;1.67;;;7.60;99.90;;;;;;5053777;28;20497;-45
2022/11/15 10:41:22;;;;;;;74.30;16.40;;;7.70;99.90;;;;;;5053551;28;20544;-45
2022/11/15 10:44:18;;;;;;;11.50;3.50;;;7.80;99.90;;;;;;5053907;28;20901;-45
2022/11/15 10:46:50;;;;;;;7.77;1.73;;;7.80;99.90;;;;;;5053628;28;20441;-44
2022/11/15 10:49:18;;;;;;;5.80;1.90;;;7.80;99.90;;;;;;5053202;28;20476;-45
2022/11/15 10:51:48;;;;;;;1.90;1.50;;;7.90;99.90;;;;;;5053439;28;20569;-44
2022/11/15 10:54:20;;;;;;;1.63;1.33;;;8.00;99.90;;;;;;5052972;28;20449;-44
2022/11/15 10:56:51;;;;;;;6.53;1.80;;;8.10;99.90;;;;;;5053399;28;20536;-44
2022/11/15 10:59:25;;;;;;;2.30;1.40;;;8.10;99.90;;;;;;5053666;28;20473;-45
2022/11/15 11:01:53;;;;;;;3.30;1.57;;;8.10;99.90;;;;;;5053243;28;20995;-45
2022/11/15 11:04:20;;;;;;;3.93;1.67;;;8.10;99.90;;;;;;5053258;28;20533;-44
2022/11/15 11:06:49;;;;;;;3.10;1.77;;;8.10;99.90;;;;;;5053331;28;20480;-47
2022/11/15 11:09:27;;;;;;;3.90;1.97;;;8.30;99.90;;;;;;5053540;28;20469;-45
2022/11/15 11:11:54;;;;;;;3.30;2.10;;;8.40;99.90;;;;;;5053506;28;20461;-45
2022/11/15 11:14:25;;;;;;;4.80;3.00;;;8.40;99.90;;;;;;5053138;28;20730;-46
2022/11/15 11:16:58;;;;;;;6.90;2.83;;;8.50;99.90;;;;;;5053184;28;20591;-45
2022/11/15 11:19:57;;;;;;;16.50;4.90;;;8.50;99.90;;;;;;5053153;28;20520;-47
2022/11/15 11:22:31;;;;;;;68.73;16.47;;;8.60;99.90;;;;;;5053104;28;20470;-45
2022/11/15 11:25:23;;;;;;;11.30;4.80;;;8.60;99.90;;;;;;5053018;28;20544;-47
2022/11/15 11:28:03;;;;;;;3.20;2.20;;;8.60;99.90;;;;;;5053321;28;20741;-47
2022/11/15 11:30:41;;;;;;;3.00;2.63;;;8.70;99.90;;;;;;5052499;28;20537;-50
2022/11/15 11:33:18;;;;;;;1.80;1.70;;;8.80;99.90;;;;;;5052966;28;20530;-47
2022/11/15 11:35:58;;;;;;;42.87;25.87;;;8.80;99.90;;;;;;5053145;28;20445;-47
2022/11/15 11:38:39;;;;;;;16.87;12.47;;;8.80;99.90;;;;;;5053052;28;20859;-48
2022/11/15 11:41:15;;;;;;;4.23;3.70;;;8.80;99.90;;;;;;5052633;28;21061;-46
2022/11/15 11:43:51;;;;;;;2.70;2.10;;;8.90;99.90;;;;;;5052997;28;20516;-47
2022/11/15 11:46:49;;;;;;;16.10;4.50;;;8.90;99.90;;;;;;5052969;28;20603;-47
2022/11/15 11:49:22;;;;;;;2.67;1.83;;;9.00;99.90;;;;;;5036500;28;20469;-46
2022/11/15 11:51:55;;;;;;;3.30;1.80;;;9.00;99.90;;;;;;5051804;28;20564;-47
2022/11/15 11:54:26;;;;;;;3.03;2.10;;;9.10;99.90;;;;;;5051759;28;20529;-49
2022/11/15 11:56:58;;;;;;;2.03;1.80;;;9.10;99.90;;;;;;5052461;28;20535;-47
2022/11/15 11:59:34;;;;;;;11.80;2.40;;;9.20;99.90;;;;;;5052481;28;20447;-47
2022/11/15 12:02:10;;;;;;;1.90;1.70;;;9.20;99.90;;;;;;5052140;28;20556;-46
2022/11/15 12:04:43;;;;;;;2.40;1.40;;;9.10;99.90;;;;;;5051807;28;20565;-48
2022/11/15 12:07:15;;;;;;;4.93;2.10;;;9.10;99.90;;;;;;5052060;28;20926;-48
2022/11/15 12:09:47;;;;;;;4.40;1.53;;;9.30;99.90;;;;;;5053396;28;20474;-48
2022/11/15 12:12:19;;;;;;;15.73;3.40;;;9.30;99.90;;;;;;5054713;28;20525;-48
2022/11/15 12:14:51;;;;;;;6.13;2.10;;;9.30;99.90;;;;;;5052951;28;20454;-47
2022/11/15 12:17:22;;;;;;;3.30;2.40;;;9.40;99.90;;;;;;5053607;28;20497;-48
2022/11/15 12:19:52;;;;;;;7.90;6.03;;;9.40;99.90;;;;;;5053488;28;20552;-47
2022/11/15 12:22:22;;;;;;;4.40;4.00;;;9.50;99.90;;;;;;5056529;28;20481;-48
2022/11/15 12:24:54;;;;;;;3.20;2.50;;;9.40;99.90;;;;;;5055615;28;20790;-47
2022/11/15 12:27:31;;;;;;;4.57;2.20;;;9.40;99.90;;;;;;5035089;28;20478;-47
2022/11/15 12:30:02;;;;;;;3.43;2.60;;;9.40;99.90;;;;;;5046356;28;20521;-51
2022/11/15 12:32:32;;;;;;;2.47;1.93;;;9.50;99.90;;;;;;5053353;28;20494;-48
2022/11/15 12:35:03;;;;;;;4.27;1.97;;;9.50;99.90;;;;;;5050974;28;20454;-48
2022/11/15 12:37:51;;;;;;;4.83;2.50;;;9.60;99.90;;;;;;5052084;28;20536;-48
2022/11/15 12:40:24;;;;;;;3.33;2.57;;;9.70;99.90;;;;;;5045883;28;20973;-48
2022/11/15 12:43:25;;;;;;;2.40;2.10;;;9.70;99.90;;;;;;5051647;28;20445;-45
2022/11/15 12:45:54;;;;;;;2.47;2.17;;;9.70;99.90;;;;;;5051307;28;20524;-48
2022/11/15 12:48:57;;;;;;;6.00;2.20;;;9.70;99.90;;;;;;5051652;28;20993;-47
2022/11/15 12:52:03;;;;;;;3.97;3.30;;;9.70;99.90;;;;;;5051626;28;20461;-47
2022/11/15 12:55:02;;;;;;;2.90;2.63;;;9.80;99.90;;;;;;5051036;28;20450;-48
2022/11/15 12:57:44;;;;;;;3.90;2.40;;;9.70;99.90;;;;;;5051012;28;20807;-47
2022/11/15 13:00:46;;;;;;;4.90;2.80;;;9.80;99.90;;;;;;5051341;28;20521;-48
2022/11/15 13:03:29;;;;;;;5.10;2.80;;;9.70;99.90;;;;;;5051331;28;20449;-48
2022/11/15 13:06:28;;;;;;;3.57;2.30;;;9.70;99.90;;;;;;5051283;28;20816;-47
2022/11/15 13:08:55;;;;;;;3.03;2.73;;;9.80;99.90;;;;;;5049838;28;20562;-47
2022/11/15 13:11:51;;;;;;;4.30;2.60;;;9.80;99.90;;;;;;5051372;28;20486;-48
2022/11/15 13:14:41;;;;;;;3.80;2.80;;;9.80;99.90;;;;;;5051189;28;20528;-47
2022/11/15 13:17:25;;;;;;;4.57;2.93;;;9.80;99.90;;;;;;5050873;28;20525;-48
2022/11/15 13:20:00;;;;;;;4.37;2.83;;;9.80;99.90;;;;;;5051274;28;20437;-48
2022/11/15 13:25:51;;;;;;;3.77;2.93;;;9.80;99.90;;;;;;5034890;28;20492;-50
2022/11/15 13:28:24;;;;;;;2.07;1.73;;;9.80;99.90;;;;;;5037657;28;20832;-48
2022/11/15 13:30:54;;;;;;;2.80;2.10;;;9.80;99.90;;;;;;5037638;28;20491;-48